Gerton, NC

02:43 PM EDT on Awissu 30, 2016 (GMT -0400)
Rabbit Run Creekside | | Change Station

Elev 2835 ft 35.48 °N, 82.35 °W | Updated 10 minutes ago

Clear
ċar
79.3 °F
Feels Like 82 °F
N
2.0
rih varjabbli rih from Nofs in-nhar
Gusts 4.0 mph

Illum
High -- | Low -- °F
--% Chance of Precip.
Yesterday
High -- | Low -- °F
Precip. -- in
pressjoni 30.12 in
vizibilita 10.0 mili
s ċar
indici ta' shana 82 °F
punt ta' nida 68 °F
umdita 68%
Rainfall 0.00 in
Snow Depth Not available.
7:00 AM 7:58 PM
Waning Crescent, 3% visible
METAR KAVL 301754Z 16007KT 10SM CLR 28/16 A3020 RMK AO2 SLP199 T02780156 10283 20178 58009
pressjoni 30.12 in
vizibilita 10.0 mili
s ċar
indici ta' shana 82 °F
punt ta' nida 68 °F
umdita 68%
Rainfall 0.00 in
Snow Depth Not available.
7:00 AM 7:58 PM
Waning Crescent, 3% visible
METAR KAVL 301754Z 16007KT 10SM CLR 28/16 A3020 RMK AO2 SLP199 T02780156 10283 20178 58009

10-Day Weather Forecast

Almanac

Astronomy

Aug. 30, 2016 Rise Set
Actual Time
Civil Twilight
Nautical Twilight
Astronomical Twilight
Moon
Length Of Visible Light
Length of Day
Tomorrow will be .
, % of the Moon is Illuminated

Today's Extremes

State Highs State Lows

Community

WunderPhotos

Upload Photos

1,935,875 photos uploaded!

WunderBlog® & News

Nearby

Air Quality

  Air Quality AQ Index Pollutant
Not available.

Snow Depth

Station Depth Elevation

Earthquake Activity

City Distance Mag. Time & Date
Minimum magnitude displayed is 2.5.

Coastal Water Temperatures

Post temperatura

Stations

Nearby Weather Stations

Station Location Temp kesha tar-rih punt ta' nida umdita rih Precip. Elev aggornat Type
                   

Watches & Warnings

There are currently no watches in effect.